Time;durP1;ratioP1;P1;durP2;ratioP2;P2;SDS_P1;SDS_P2;PMS_P1;PMS_P2;Temp;Humidity;BMP_temperature;BMP_pressure;BME280_temperature;BME280_humidity;BME280_pressure;Samples;Min_cycle;Max_cycle;Signal;HPM_P1;HPM_P2
2023/10/12 00:01:59;;;;;;;12.63;7.05;;;;;;;;;;4984284;28;20506;-69
2023/10/12 00:07:38;;;;;;;10.77;6.47;;;;;;;;;;4988697;28;20078;-69
2023/10/12 00:12:47;;;;;;;12.80;6.80;;;;;;;;;;4975733;28;20030;-69
2023/10/12 00:15:28;;;;;;;11.85;7.07;;;;;;;;;;4974958;28;20066;-68
2023/10/12 00:17:57;;;;;;;16.10;7.88;;;;;;;;;;4976153;28;20039;-68
2023/10/12 00:22:59;;;;;;;12.85;7.28;;;;;;;;;;4976384;28;20039;-69
2023/10/12 00:25:33;;;;;;;12.45;6.40;;;;;;;;;;4976287;28;20034;-69
2023/10/12 00:27:59;;;;;;;14.20;7.47;;;;;;;;;;4976258;28;20046;-69
2023/10/12 00:30:25;;;;;;;17.10;6.40;;;;;;;;;;4974998;28;20389;-69
2023/10/12 00:32:51;;;;;;;9.45;5.97;;;;;;;;;;4974897;28;20409;-69
2023/10/12 00:35:18;;;;;;;12.35;6.30;;;;;;;;;;4975927;28;20031;-68
2023/10/12 00:37:43;;;;;;;10.15;5.97;;;;;;;;;;4974720;28;20069;-68
2023/10/12 00:40:29;;;;;;;10.40;5.68;;;;;;;;;;4976047;28;20055;-69
2023/10/12 00:42:56;;;;;;;12.23;6.90;;;;;;;;;;4974777;28;20093;-69
2023/10/12 00:45:34;;;;;;;13.40;7.00;;;;;;;;;;4976201;28;20027;-68
2023/10/12 00:48:08;;;;;;;12.32;7.15;;;;;;;;;;4974708;28;20062;-69
2023/10/12 00:50:36;;;;;;;12.68;6.93;;;;;;;;;;4974771;28;20541;-68
2023/10/12 00:53:30;;;;;;;21.25;7.97;;;;;;;;;;4974458;28;20027;-68
2023/10/12 00:55:57;;;;;;;15.38;7.25;;;;;;;;;;4974291;28;20034;-69
2023/10/12 00:58:23;;;;;;;16.73;7.50;;;;;;;;;;4975719;28;20027;-69
2023/10/12 01:00:51;;;;;;;14.65;8.02;;;;;;;;;;4974408;28;20046;-68
2023/10/12 01:03:35;;;;;;;13.02;7.55;;;;;;;;;;4974307;28;20492;-68
2023/10/12 01:06:47;;;;;;;13.88;7.50;;;;;;;;;;4974123;28;20493;-68
2023/10/12 01:08:57;;;;;;;15.13;7.43;;;;;;;;;;4973896;28;20770;-68
2023/10/12 01:11:26;;;;;;;13.82;7.40;;;;;;;;;;4974248;28;20058;-68
2023/10/12 01:14:09;;;;;;;12.68;7.28;;;;;;;;;;4974321;28;20493;-68
2023/10/12 01:19:22;;;;;;;10.52;7.53;;;;;;;;;;4974399;28;20065;-69
2023/10/12 01:22:04;;;;;;;14.02;7.70;;;;;;;;;;4974101;28;20046;-69
2023/10/12 01:24:30;;;;;;;13.38;7.75;;;;;;;;;;4974328;28;20485;-69
2023/10/12 01:26:57;;;;;;;10.55;6.80;;;;;;;;;;4974127;28;20054;-69
2023/10/12 01:29:25;;;;;;;14.85;7.25;;;;;;;;;;4975463;28;20042;-69
2023/10/12 01:34:40;;;;;;;10.48;6.75;;;;;;;;;;4975086;28;20034;-69
2023/10/12 01:37:20;;;;;;;15.10;7.20;;;;;;;;;;4974829;28;20037;-69
2023/10/12 01:39:55;;;;;;;12.70;6.95;;;;;;;;;;4973389;28;20035;-69
2023/10/12 01:42:21;;;;;;;11.85;6.80;;;;;;;;;;4973573;28;20047;-69
2023/10/12 01:44:49;;;;;;;13.05;6.97;;;;;;;;;;4973471;28;20049;-69
2023/10/12 01:47:15;;;;;;;14.90;7.10;;;;;;;;;;4973300;28;20404;-68
2023/10/12 01:49:46;;;;;;;16.83;6.70;;;;;;;;;;4974772;28;20392;-69
2023/10/12 01:52:11;;;;;;;11.38;6.45;;;;;;;;;;4974718;28;20484;-69
2023/10/12 01:54:43;;;;;;;12.95;6.57;;;;;;;;;;4973335;28;20062;-69
2023/10/12 01:57:10;;;;;;;15.13;6.93;;;;;;;;;;4973193;28;20046;-69
2023/10/12 01:59:35;;;;;;;8.68;5.63;;;;;;;;;;4973205;28;20023;-69
2023/10/12 02:02:14;;;;;;;7.82;5.90;;;;;;;;;;4973154;28;20031;-69
2023/10/12 02:04:40;;;;;;;13.18;6.63;;;;;;;;;;4974268;28;20061;-69
2023/10/12 02:07:10;;;;;;;11.63;6.57;;;;;;;;;;4973264;28;20552;-68
2023/10/12 02:09:37;;;;;;;13.80;6.03;;;;;;;;;;4973044;28;20038;-68
2023/10/12 02:12:10;;;;;;;11.63;5.70;;;;;;;;;;4972970;28;20150;-68
2023/10/12 02:14:40;;;;;;;12.45;6.72;;;;;;;;;;4972856;28;20031;-68
2023/10/12 02:17:10;;;;;;;15.40;6.50;;;;;;;;;;4972639;28;20035;-69
2023/10/12 02:19:42;;;;;;;11.23;6.32;;;;;;;;;;4972673;28;20041;-68
2023/10/12 02:22:18;;;;;;;17.73;7.07;;;;;;;;;;4954715;28;20042;-69
2023/10/12 02:25:00;;;;;;;13.63;7.38;;;;;;;;;;4954637;28;20046;-69
2023/10/12 02:27:26;;;;;;;13.57;6.97;;;;;;;;;;4953410;29;20524;-69
2023/10/12 02:29:53;;;;;;;15.02;7.35;;;;;;;;;;4957035;28;20514;-69
2023/10/12 02:32:24;;;;;;;14.57;7.22;;;;;;;;;;4976824;28;20030;-68
2023/10/12 02:34:57;;;;;;;12.15;7.15;;;;;;;;;;4972536;28;20050;-68
2023/10/12 02:37:24;;;;;;;15.35;7.30;;;;;;;;;;4992488;28;20113;-69
2023/10/12 02:39:53;;;;;;;15.95;8.35;;;;;;;;;;4987884;28;20477;-68
2023/10/12 02:42:38;;;;;;;15.02;7.20;;;;;;;;;;4970040;28;20093;-69
2023/10/12 02:45:41;;;;;;;23.65;7.90;;;;;;;;;;4968332;28;20038;-69
2023/10/12 02:48:04;;;;;;;14.13;7.53;;;;;;;;;;4981534;28;20043;-69
2023/10/12 02:50:37;;;;;;;22.15;8.48;;;;;;;;;;4970647;28;20045;-69
2023/10/12 02:53:09;;;;;;;20.90;8.80;;;;;;;;;;4984007;28;20090;-69
2023/10/12 02:55:48;;;;;;;18.58;7.22;;;;;;;;;;4975148;28;20061;-68
2023/10/12 02:58:23;;;;;;;14.07;7.90;;;;;;;;;;4988841;28;20053;-68
2023/10/12 03:00:55;;;;;;;15.27;7.63;;;;;;;;;;4989015;28;20034;-69
2023/10/12 03:03:33;;;;;;;14.57;6.95;;;;;;;;;;4948680;28;20035;-70
2023/10/12 03:06:06;;;;;;;12.60;6.75;;;;;;;;;;4968547;28;20030;-69
2023/10/12 03:08:48;;;;;;;13.60;7.65;;;;;;;;;;4987288;28;20044;-69
2023/10/12 03:11:19;;;;;;;14.27;7.28;;;;;;;;;;4974764;28;20290;-69
2023/10/12 03:14:03;;;;;;;14.75;7.10;;;;;;;;;;4968059;28;20034;-68
2023/10/12 03:16:34;;;;;;;;;;;;;;;;;;4974881;28;20035;-68
2023/10/12 03:19:01;;;;;;;12.98;7.60;;;;;;;;;;4969096;28;20300;-69
2023/10/12 03:21:27;;;;;;;11.90;6.90;;;;;;;;;;4983955;28;20030;-69
2023/10/12 03:23:56;;;;;;;11.60;6.05;;;;;;;;;;4969214;28;20097;-69
2023/10/12 03:26:26;;;;;;;13.48;6.53;;;;;;;;;;4968437;28;20089;-69
2023/10/12 03:29:32;;;;;;;10.98;6.50;;;;;;;;;;4969341;28;20489;-69
2023/10/12 03:37:18;;;;;;;16.48;8.60;;;;;;;;;;4969150;28;20612;-68
2023/10/12 03:39:59;;;;;;;17.60;7.00;;;;;;;;;;4971755;28;20050;-69
2023/10/12 03:48:04;;;;;;;11.23;6.00;;;;;;;;;;4991507;28;20054;-69
2023/10/12 03:50:50;;;;;;;20.55;6.95;;;;;;;;;;4972557;28;20057;-72
2023/10/12 03:53:58;;;;;;;15.73;6.90;;;;;;;;;;4971400;28;20105;-69
2023/10/12 03:56:36;;;;;;;15.95;6.68;;;;;;;;;;4972017;28;20485;-69
2023/10/12 03:59:06;;;;;;;13.73;6.60;;;;;;;;;;4972457;28;20050;-69
2023/10/12 04:01:35;;;;;;;17.75;8.43;;;;;;;;;;4976624;28;20042;-68
2023/10/12 04:09:34;;;;;;;21.02;8.60;;;;;;;;;;4971740;28;20126;-69
2023/10/12 04:12:29;;;;;;;20.15;8.18;;;;;;;;;;4972248;28;20337;-69
2023/10/12 04:14:56;;;;;;;19.98;8.68;;;;;;;;;;4952041;29;20035;-69
2023/10/12 04:22:34;;;;;;;13.93;7.70;;;;;;;;;;4969167;28;20031;-71
2023/10/12 04:25:12;;;;;;;13.57;7.70;;;;;;;;;;4985023;28;20035;-69
2023/10/12 04:27:41;;;;;;;15.57;8.10;;;;;;;;;;4978586;28;20035;-69
2023/10/12 04:30:20;;;;;;;12.38;7.60;;;;;;;;;;4973473;28;20034;-69
2023/10/12 04:33:11;;;;;;;16.50;7.68;;;;;;;;;;4973208;28;20133;-68
2023/10/12 04:38:28;;;;;;;16.95;7.03;;;;;;;;;;4975638;28;20500;-68
2023/10/12 04:43:39;;;;;;;15.27;7.55;;;;;;;;;;4973967;28;20084;-69
2023/10/12 04:46:26;;;;;;;18.25;8.05;;;;;;;;;;4974395;28;20030;-69
2023/10/12 04:49:53;;;;;;;14.23;7.95;;;;;;;;;;4974841;28;20035;-69
2023/10/12 04:51:40;;;;;;;25.67;9.70;;;;;;;;;;4973308;28;20027;-68
2023/10/12 04:54:17;;;;;;;17.58;9.43;;;;;;;;;;4974517;28;20026;-69
2023/10/12 04:56:56;;;;;;;17.20;8.25;;;;;;;;;;4974323;28;20042;-69
2023/10/12 04:59:28;;;;;;;26.77;8.70;;;;;;;;;;4974950;28;20037;-71
2023/10/12 05:09:49;;;;;;;23.40;8.73;;;;;;;;;;4973869;28;20035;-71
2023/10/12 05:12:20;;;;;;;22.30;8.40;;;;;;;;;;4974468;28;20034;-70
2023/10/12 05:14:47;;;;;;;27.40;7.88;;;;;;;;;;4974396;28;20029;-71
2023/10/12 05:17:14;;;;;;;16.30;7.30;;;;;;;;;;4974069;28;20086;-72
2023/10/12 05:19:41;;;;;;;14.35;7.07;;;;;;;;;;4974211;28;20050;-70
2023/10/12 05:22:06;;;;;;;24.48;7.55;;;;;;;;;;4974323;28;20026;-71
2023/10/12 05:24:34;;;;;;;29.00;6.88;;;;;;;;;;4974192;28;20035;-71
2023/10/12 05:27:23;;;;;;;18.40;6.13;;;;;;;;;;4974006;28;20018;-72
2023/10/12 05:29:52;;;;;;;14.07;5.25;;;;;;;;;;4974004;28;20038;-72
2023/10/12 05:32:18;;;;;;;10.13;4.68;;;;;;;;;;4974359;28;20073;-72
2023/10/12 05:34:46;;;;;;;9.38;4.45;;;;;;;;;;4974093;28;20122;-71
2023/10/12 05:39:46;;;;;;;11.20;4.47;;;;;;;;;;4972091;28;20035;-71
2023/10/12 05:42:15;;;;;;;26.15;6.25;;;;;;;;;;4973100;28;20077;-72
2023/10/12 05:44:45;;;;;;;7.30;4.20;;;;;;;;;;4973751;28;20023;-76
2023/10/12 05:47:13;;;;;;;9.23;4.20;;;;;;;;;;4973897;28;20034;-72
2023/10/12 05:49:42;;;;;;;14.60;4.55;;;;;;;;;;4973588;28;20035;-72
2023/10/12 05:52:09;;;;;;;10.88;4.18;;;;;;;;;;4973825;28;20046;-72
2023/10/12 05:54:39;;;;;;;8.45;3.75;;;;;;;;;;4973987;28;20501;-71
2023/10/12 05:57:19;;;;;;;10.18;5.05;;;;;;;;;;4973046;28;20038;-71
2023/10/12 05:59:49;;;;;;;9.98;4.53;;;;;;;;;;4971563;28;20404;-71
2023/10/12 06:02:17;;;;;;;17.38;5.95;;;;;;;;;;4973293;28;20049;-71
2023/10/12 06:04:47;;;;;;;7.03;4.10;;;;;;;;;;4972180;28;20081;-70
2023/10/12 06:07:14;;;;;;;19.58;5.10;;;;;;;;;;4988297;28;20034;-71
2023/10/12 06:09:40;;;;;;;8.80;4.57;;;;;;;;;;4973650;28;20019;-72
2023/10/12 06:12:07;;;;;;;15.13;5.07;;;;;;;;;;4973682;28;20464;-72
2023/10/12 06:14:34;;;;;;;11.27;4.80;;;;;;;;;;4973350;28;20054;-71
2023/10/12 06:17:07;;;;;;;10.18;5.47;;;;;;;;;;4973332;28;20062;-71
2023/10/12 06:19:37;;;;;;;11.50;4.25;;;;;;;;;;4973260;28;20059;-71
2023/10/12 06:22:19;;;;;;;27.83;6.68;;;;;;;;;;4972183;28;20491;-73
2023/10/12 06:24:49;;;;;;;13.18;4.07;;;;;;;;;;4972732;28;20042;-73
2023/10/12 06:29:48;;;;;;;16.13;4.65;;;;;;;;;;4971839;28;20077;-72
2023/10/12 06:32:18;;;;;;;12.90;4.47;;;;;;;;;;4972406;28;20130;-72
2023/10/12 06:35:03;;;;;;;9.35;4.78;;;;;;;;;;4972150;28;20097;-74
2023/10/12 06:45:55;;;;;;;16.25;5.20;;;;;;;;;;4972326;28;20505;-73
2023/10/12 06:48:43;;;;;;;8.05;4.47;;;;;;;;;;4972450;28;20062;-71
2023/10/12 06:51:15;;;;;;;15.88;6.25;;;;;;;;;;4966530;28;20035;-73
2023/10/12 06:53:52;;;;;;;8.33;4.10;;;;;;;;;;4972226;28;20485;-72
2023/10/12 07:01:38;;;;;;;9.77;4.60;;;;;;;;;;4972088;28;20110;-74
2023/10/12 07:04:13;;;;;;;10.45;4.30;;;;;;;;;;4972436;28;20073;-72
2023/10/12 07:09:38;;;;;;;13.18;4.70;;;;;;;;;;4972248;28;20501;-71
2023/10/12 07:12:10;;;;;;;10.68;4.85;;;;;;;;;;4971246;28;20023;-71
2023/10/12 07:14:59;;;;;;;11.88;5.15;;;;;;;;;;4972025;28;20030;-71
2023/10/12 07:18:07;;;;;;;17.45;4.43;;;;;;;;;;4971735;28;20047;-72
2023/10/12 07:20:25;;;;;;;13.73;4.47;;;;;;;;;;4973964;28;20089;-73
2023/10/12 07:22:51;;;;;;;10.20;3.85;;;;;;;;;;4972107;28;20030;-73
2023/10/12 07:25:23;;;;;;;5.82;3.22;;;;;;;;;;4972134;28;20108;-72
2023/10/12 07:27:56;;;;;;;10.73;4.13;;;;;;;;;;4972084;28;20125;-72
2023/10/12 07:30:32;;;;;;;7.95;4.15;;;;;;;;;;4972129;28;20112;-73
2023/10/12 07:33:07;;;;;;;7.90;3.85;;;;;;;;;;4971554;28;20047;-72
2023/10/12 07:35:34;;;;;;;6.90;3.70;;;;;;;;;;4971273;28;20269;-72
2023/10/12 07:38:02;;;;;;;9.48;4.05;;;;;;;;;;4986641;28;20385;-72
2023/10/12 07:40:35;;;;;;;7.40;3.58;;;;;;;;;;4971832;28;20069;-73
2023/10/12 07:43:05;;;;;;;8.30;3.67;;;;;;;;;;4972143;28;20043;-74
2023/10/12 07:45:47;;;;;;;9.35;3.60;;;;;;;;;;4971569;28;20046;-73
2023/10/12 07:48:29;;;;;;;7.93;3.45;;;;;;;;;;4972871;28;20588;-72
2023/10/12 07:54:00;;;;;;;13.00;3.33;;;;;;;;;;4971831;28;20047;-72
2023/10/12 07:56:40;;;;;;;6.07;3.50;;;;;;;;;;4971955;28;20027;-73
2023/10/12 07:59:13;;;;;;;3.35;2.35;;;;;;;;;;4972216;28;20408;-73
2023/10/12 08:01:46;;;;;;;4.95;2.50;;;;;;;;;;4971768;28;20050;-72
2023/10/12 08:04:31;;;;;;;5.03;2.30;;;;;;;;;;4971723;28;20042;-71
2023/10/12 08:07:00;;;;;;;4.00;2.33;;;;;;;;;;4972002;28;20393;-71
2023/10/12 08:11:54;;;;;;;6.78;3.13;;;;;;;;;;4971351;28;20149;-71
2023/10/12 08:19:43;;;;;;;10.68;3.22;;;;;;;;;;4971708;28;20122;-71
2023/10/12 08:22:17;;;;;;;5.18;2.72;;;;;;;;;;4973321;28;20047;-71
2023/10/12 08:24:45;;;;;;;13.27;2.90;;;;;;;;;;4975467;28;20035;-72
2023/10/12 08:27:12;;;;;;;7.57;2.47;;;;;;;;;;4975041;28;20117;-73
2023/10/12 08:39:51;;;;;;;6.15;2.90;;;;;;;;;;4990699;28;20043;-73
2023/10/12 08:44:55;;;;;;;9.27;2.97;;;;;;;;;;4994362;28;20041;-72
2023/10/12 08:47:40;;;;;;;6.60;2.20;;;;;;;;;;4994437;28;20044;-72
2023/10/12 08:52:50;;;;;;;5.82;2.45;;;;;;;;;;4974656;28;20081;-72
2023/10/12 08:55:24;;;;;;;7.22;2.47;;;;;;;;;;4974817;28;20039;-73
2023/10/12 08:58:38;;;;;;;10.23;3.00;;;;;;;;;;4974916;28;20031;-71
2023/10/12 09:01:10;;;;;;;8.48;4.50;;;;;;;;;;4972428;28;20038;-72
2023/10/12 09:03:46;;;;;;;7.90;2.42;;;;;;;;;;4972565;28;20125;-74
2023/10/12 09:08:57;;;;;;;9.15;2.58;;;;;;;;;;4974346;28;20082;-72
2023/10/12 09:11:29;;;;;;;5.40;2.42;;;;;;;;;;4974947;28;20481;-73
2023/10/12 09:13:57;;;;;;;5.43;2.22;;;;;;;;;;4975181;28;20061;-72
2023/10/12 09:16:23;;;;;;;4.18;2.40;;;;;;;;;;4974569;28;20136;-72
2023/10/12 09:18:57;;;;;;;6.20;2.63;;;;;;;;;;4973974;28;20062;-72
2023/10/12 09:21:27;;;;;;;4.13;2.42;;;;;;;;;;4988154;28;20038;-72
2023/10/12 09:26:50;;;;;;;5.85;2.83;;;;;;;;;;4975626;28;20054;-72
2023/10/12 09:29:23;;;;;;;5.60;2.70;;;;;;;;;;4972979;28;20117;-72
2023/10/12 09:34:44;;;;;;;3.53;2.25;;;;;;;;;;4974372;28;20448;-74
2023/10/12 09:37:16;;;;;;;4.97;1.98;;;;;;;;;;4973651;28;20484;-72
2023/10/12 09:39:46;;;;;;;10.48;3.03;;;;;;;;;;4974877;28;20382;-71
2023/10/12 09:42:23;;;;;;;6.35;2.97;;;;;;;;;;4972831;28;20030;-72
2023/10/12 09:44:53;;;;;;;6.43;3.10;;;;;;;;;;4972774;28;20062;-73
2023/10/12 09:47:25;;;;;;;7.55;3.30;;;;;;;;;;4974321;28;20038;-73
2023/10/12 09:49:58;;;;;;;9.27;3.30;;;;;;;;;;4974361;28;20120;-72
2023/10/12 09:52:46;;;;;;;7.07;3.58;;;;;;;;;;4972605;28;20174;-72
2023/10/12 09:55:23;;;;;;;12.57;3.30;;;;;;;;;;4974125;28;20344;-73
2023/10/12 09:57:52;;;;;;;6.43;3.25;;;;;;;;;;4974336;28;20489;-72
2023/10/12 10:00:55;;;;;;;10.02;3.35;;;;;;;;;;4972722;28;20565;-72
2023/10/12 10:03:13;;;;;;;6.53;3.00;;;;;;;;;;4973662;28;20403;-72
2023/10/12 10:05:51;;;;;;;6.75;2.65;;;;;;;;;;4973628;28;20113;-71
2023/10/12 10:08:19;;;;;;;5.88;3.72;;;;;;;;;;4973939;28;20046;-73
2023/10/12 10:10:46;;;;;;;6.70;3.00;;;;;;;;;;4972295;28;20023;-72
2023/10/12 10:13:39;;;;;;;8.10;3.10;;;;;;;;;;4973637;28;20116;-72
2023/10/12 10:16:09;;;;;;;6.22;2.78;;;;;;;;;;4973565;28;20050;-72
2023/10/12 10:19:13;;;;;;;4.70;3.20;;;;;;;;;;4973576;28;20023;-74
2023/10/12 10:22:11;;;;;;;6.85;3.40;;;;;;;;;;4972133;28;20042;-77
2023/10/12 10:24:55;;;;;;;12.38;4.00;;;;;;;;;;4973216;28;20551;-73
2023/10/12 10:27:33;;;;;;;6.78;3.42;;;;;;;;;;4973425;28;20031;-72
2023/10/12 10:30:23;;;;;;;9.88;3.65;;;;;;;;;;4973489;28;20105;-72
2023/10/12 10:33:06;;;;;;;9.15;3.25;;;;;;;;;;4986512;28;20166;-72
2023/10/12 10:36:24;;;;;;;5.97;2.83;;;;;;;;;;4972630;28;20034;-73
2023/10/12 10:38:54;;;;;;;6.07;2.90;;;;;;;;;;4968166;28;20031;-72
2023/10/12 10:44:11;;;;;;;9.07;3.30;;;;;;;;;;4973732;28;20034;-73
2023/10/12 10:46:43;;;;;;;6.57;3.38;;;;;;;;;;4973113;28;20093;-73
2023/10/12 10:49:16;;;;;;;5.50;3.20;;;;;;;;;;4973026;28;20043;-73
2023/10/12 10:51:48;;;;;;;10.00;3.72;;;;;;;;;;4973328;28;20441;-73
2023/10/12 10:54:18;;;;;;;8.85;3.83;;;;;;;;;;4973130;28;20077;-72
2023/10/12 10:56:48;;;;;;;11.93;3.92;;;;;;;;;;4973008;28;20497;-72
2023/10/12 10:59:18;;;;;;;12.23;3.95;;;;;;;;;;4972788;28;20058;-73
2023/10/12 11:01:48;;;;;;;5.13;3.42;;;;;;;;;;4975406;28;20118;-73
2023/10/12 11:04:55;;;;;;;6.78;3.08;;;;;;;;;;4972801;28;20434;-73
2023/10/12 11:07:17;;;;;;;7.10;4.00;;;;;;;;;;4974059;28;20113;-72
2023/10/12 11:12:22;;;;;;;6.47;3.70;;;;;;;;;;4972986;28;20038;-73
2023/10/12 11:14:58;;;;;;;5.35;3.53;;;;;;;;;;4972929;28;20066;-73
2023/10/12 11:17:35;;;;;;;6.90;3.53;;;;;;;;;;4972018;28;20031;-72
2023/10/12 11:20:27;;;;;;;19.15;6.38;;;;;;;;;;4972618;28;20039;-73
2023/10/12 11:22:57;;;;;;;5.82;4.00;;;;;;;;;;4972367;28;20465;-73
2023/10/12 11:25:26;;;;;;;8.25;3.30;;;;;;;;;;4966098;28;20118;-74
2023/10/12 11:27:53;;;;;;;7.10;4.32;;;;;;;;;;4971551;28;20027;-72
2023/10/12 11:30:36;;;;;;;6.38;4.03;;;;;;;;;;4971035;28;20542;-71
2023/10/12 11:33:09;;;;;;;14.43;4.03;;;;;;;;;;4972310;28;20163;-74
2023/10/12 11:35:43;;;;;;;10.57;3.70;;;;;;;;;;4971186;28;20038;-72
2023/10/12 11:38:20;;;;;;;10.80;4.18;;;;;;;;;;4972470;28;20096;-72
2023/10/12 11:40:55;;;;;;;8.10;3.60;;;;;;;;;;4986335;28;20042;-73
2023/10/12 11:43:26;;;;;;;12.00;4.03;;;;;;;;;;4972094;28;20039;-73
2023/10/12 11:46:03;;;;;;;11.38;4.90;;;;;;;;;;4971534;28;20053;-74
2023/10/12 11:48:30;;;;;;;8.77;3.97;;;;;;;;;;4971734;28;20114;-73
2023/10/12 11:50:57;;;;;;;9.68;3.55;;;;;;;;;;4971953;28;20030;-73
2023/10/12 11:53:24;;;;;;;7.75;4.03;;;;;;;;;;4971946;28;20035;-74
2023/10/12 11:56:18;;;;;;;9.05;3.72;;;;;;;;;;4972355;28;20393;-74
2023/10/12 11:58:51;;;;;;;6.53;3.80;;;;;;;;;;4969321;28;20061;-72
2023/10/12 12:01:18;;;;;;;5.80;4.03;;;;;;;;;;4975682;28;20046;-74
2023/10/12 12:03:45;;;;;;;19.40;5.55;;;;;;;;;;4975955;28;20029;-72
2023/10/12 12:06:21;;;;;;;5.63;3.95;;;;;;;;;;4975805;28;20065;-72
2023/10/12 12:08:51;;;;;;;6.85;4.18;;;;;;;;;;4990113;28;20413;-73
2023/10/12 12:11:31;;;;;;;10.13;3.92;;;;;;;;;;4975841;28;20050;-73
2023/10/12 12:13:57;;;;;;;9.75;4.05;;;;;;;;;;4975747;28;20031;-73
2023/10/12 12:16:23;;;;;;;7.20;3.45;;;;;;;;;;4975498;28;20504;-74
2023/10/12 12:18:51;;;;;;;5.35;3.72;;;;;;;;;;4975238;28;20082;-75
2023/10/12 12:21:29;;;;;;;10.30;4.47;;;;;;;;;;4975388;28;20081;-73
2023/10/12 12:24:22;;;;;;;6.55;3.58;;;;;;;;;;4975381;28;20049;-74
2023/10/12 12:26:51;;;;;;;6.28;3.65;;;;;;;;;;4975172;28;20404;-74
2023/10/12 12:29:21;;;;;;;6.55;4.20;;;;;;;;;;4972888;28;20182;-73
2023/10/12 12:31:48;;;;;;;11.55;3.95;;;;;;;;;;4988470;28;20041;-74
2023/10/12 12:34:34;;;;;;;10.43;4.30;;;;;;;;;;4994904;28;20080;-73
2023/10/12 12:37:04;;;;;;;7.70;3.83;;;;;;;;;;4994599;28;20373;-73
2023/10/12 12:39:34;;;;;;;8.40;3.72;;;;;;;;;;4990814;28;20034;-74
2023/10/12 12:42:10;;;;;;;6.43;4.38;;;;;;;;;;4976880;28;20054;-73
2023/10/12 12:44:37;;;;;;;12.13;4.20;;;;;;;;;;4973606;28;20090;-72
2023/10/12 12:47:06;;;;;;;6.20;4.03;;;;;;;;;;4968885;28;20485;-74
2023/10/12 12:49:32;;;;;;;7.57;3.90;;;;;;;;;;4974294;28;20035;-73
2023/10/12 12:51:58;;;;;;;10.32;4.25;;;;;;;;;;4974798;28;20026;-74
2023/10/12 12:54:25;;;;;;;10.23;3.78;;;;;;;;;;4975482;28;20035;-73
2023/10/12 12:56:53;;;;;;;9.25;3.60;;;;;;;;;;4970846;28;20480;-74
2023/10/12 12:59:24;;;;;;;10.45;3.78;;;;;;;;;;4973715;28;20377;-73
2023/10/12 13:01:50;;;;;;;5.68;3.53;;;;;;;;;;4974719;28;20554;-72
2023/10/12 13:04:17;;;;;;;5.18;3.60;;;;;;;;;;4983912;28;20045;-73
2023/10/12 13:06:43;;;;;;;8.32;4.10;;;;;;;;;;4993103;28;20112;-73
2023/10/12 13:09:28;;;;;;;5.90;3.65;;;;;;;;;;4990536;28;20041;-73
2023/10/12 13:11:57;;;;;;;7.75;4.30;;;;;;;;;;4973289;28;20438;-73
2023/10/12 13:14:23;;;;;;;5.57;3.70;;;;;;;;;;4973507;28;20512;-73
2023/10/12 13:16:49;;;;;;;6.20;3.67;;;;;;;;;;4972788;28;20043;-72
2023/10/12 13:19:17;;;;;;;8.88;3.83;;;;;;;;;;4972512;28;20502;-73
2023/10/12 13:21:44;;;;;;;5.75;3.42;;;;;;;;;;4973658;28;20039;-74
2023/10/12 13:24:12;;;;;;;5.47;3.58;;;;;;;;;;4973407;28;20047;-73
2023/10/12 13:26:43;;;;;;;7.55;4.30;;;;;;;;;;4973138;28;20101;-75
2023/10/12 13:29:13;;;;;;;9.35;3.40;;;;;;;;;;4971781;28;20062;-75
2023/10/12 13:31:39;;;;;;;7.90;4.28;;;;;;;;;;4973155;28;20039;-73
2023/10/12 13:34:05;;;;;;;5.50;3.70;;;;;;;;;;4970328;28;20374;-76
2023/10/12 13:36:33;;;;;;;8.18;3.90;;;;;;;;;;4973560;28;20035;-74
2023/10/12 13:38:59;;;;;;;7.15;3.58;;;;;;;;;;4973726;28;20430;-73
2023/10/12 13:41:26;;;;;;;5.00;3.35;;;;;;;;;;4973139;28;20035;-72
2023/10/12 13:43:51;;;;;;;14.50;4.68;;;;;;;;;;4970052;28;20023;-72
2023/10/12 13:46:20;;;;;;;10.27;3.47;;;;;;;;;;4973016;28;20097;-72
2023/10/12 13:48:49;;;;;;;11.68;3.72;;;;;;;;;;4973524;28;20027;-73
2023/10/12 13:51:20;;;;;;;8.18;3.90;;;;;;;;;;4972264;28;20126;-74
2023/10/12 13:53:49;;;;;;;8.70;3.65;;;;;;;;;;4973421;28;20038;-73
2023/10/12 13:56:15;;;;;;;6.75;3.60;;;;;;;;;;4972395;28;20362;-73
2023/10/12 13:58:44;;;;;;;6.20;3.78;;;;;;;;;;4973863;28;20074;-73
2023/10/12 14:01:18;;;;;;;7.65;3.72;;;;;;;;;;4973543;28;20065;-72
2023/10/12 14:03:45;;;;;;;6.82;3.65;;;;;;;;;;4973256;28;20042;-72
2023/10/12 14:06:12;;;;;;;7.72;4.05;;;;;;;;;;4972498;28;20030;-72
2023/10/12 14:08:42;;;;;;;8.38;3.42;;;;;;;;;;4970572;28;20370;-71
2023/10/12 14:11:19;;;;;;;9.30;3.83;;;;;;;;;;4975498;28;20031;-73
2023/10/12 14:13:46;;;;;;;4.90;3.50;;;;;;;;;;4973438;28;20444;-72
2023/10/12 14:16:13;;;;;;;7.20;3.85;;;;;;;;;;4971936;28;20118;-72
2023/10/12 14:18:40;;;;;;;6.90;3.80;;;;;;;;;;4972907;28;20046;-73
2023/10/12 14:21:15;;;;;;;8.80;4.30;;;;;;;;;;4972593;28;20037;-72
2023/10/12 14:23:48;;;;;;;8.70;3.92;;;;;;;;;;4973132;28;20041;-74
2023/10/12 14:26:22;;;;;;;8.95;4.35;;;;;;;;;;4970945;28;20031;-73
2023/10/12 14:28:53;;;;;;;7.70;4.15;;;;;;;;;;4973015;28;20093;-72
2023/10/12 14:31:22;;;;;;;6.50;3.70;;;;;;;;;;4973300;28;20568;-72
2023/10/12 14:33:51;;;;;;;6.72;3.63;;;;;;;;;;4972649;28;20441;-74
2023/10/12 14:36:18;;;;;;;5.43;3.45;;;;;;;;;;4972694;28;20034;-73
2023/10/12 14:38:50;;;;;;;15.00;4.87;;;;;;;;;;4986812;28;20081;-73
2023/10/12 14:41:18;;;;;;;6.63;3.95;;;;;;;;;;4972502;28;20031;-73
2023/10/12 14:43:48;;;;;;;7.75;4.40;;;;;;;;;;4972409;28;20042;-73
2023/10/12 14:46:14;;;;;;;7.47;3.75;;;;;;;;;;4972051;28;20027;-73
2023/10/12 14:48:43;;;;;;;9.52;4.57;;;;;;;;;;4972808;28;20078;-73
2023/10/12 14:51:25;;;;;;;11.50;3.72;;;;;;;;;;4970646;28;20027;-74
2023/10/12 14:53:51;;;;;;;5.85;4.05;;;;;;;;;;4985435;28;20051;-74
2023/10/12 14:56:24;;;;;;;7.55;3.95;;;;;;;;;;4971799;28;20110;-74
2023/10/12 14:58:51;;;;;;;8.23;4.10;;;;;;;;;;4971912;28;20051;-73
2023/10/12 15:01:20;;;;;;;7.43;4.00;;;;;;;;;;4972254;28;20038;-72
2023/10/12 15:03:45;;;;;;;7.32;3.72;;;;;;;;;;4972058;28;20206;-73
2023/10/12 15:06:14;;;;;;;9.23;4.18;;;;;;;;;;4971679;28;20033;-73
2023/10/12 15:08:41;;;;;;;6.20;3.70;;;;;;;;;;4964413;28;20039;-72
2023/10/12 15:11:09;;;;;;;7.15;3.60;;;;;;;;;;4971079;28;20031;-71
2023/10/12 15:13:38;;;;;;;4.68;3.60;;;;;;;;;;4971223;28;20412;-74
2023/10/12 15:16:09;;;;;;;6.03;3.85;;;;;;;;;;4962466;28;20381;-72
2023/10/12 15:18:37;;;;;;;8.60;3.67;;;;;;;;;;4964696;28;20041;-72
2023/10/12 15:21:04;;;;;;;6.72;3.30;;;;;;;;;;4972672;28;20484;-72
2023/10/12 15:23:30;;;;;;;4.88;3.53;;;;;;;;;;4972430;28;20493;-72
2023/10/12 15:26:06;;;;;;;11.98;4.80;;;;;;;;;;4972208;28;20121;-72
2023/10/12 15:28:36;;;;;;;9.00;4.43;;;;;;;;;;4972493;28;20049;-72
2023/10/12 15:31:03;;;;;;;8.52;3.70;;;;;;;;;;4971585;28;20085;-73
2023/10/12 15:33:30;;;;;;;9.30;3.70;;;;;;;;;;4968034;28;20350;-73
2023/10/12 15:35:56;;;;;;;7.03;3.78;;;;;;;;;;4972109;28;20023;-74
2023/10/12 15:38:21;;;;;;;5.00;3.33;;;;;;;;;;4972261;28;20041;-74
2023/10/12 15:40:47;;;;;;;11.70;3.90;;;;;;;;;;4972199;28;20038;-74
2023/10/12 15:43:16;;;;;;;9.65;3.90;;;;;;;;;;4971963;28;20023;-73
2023/10/12 15:45:44;;;;;;;7.25;3.25;;;;;;;;;;4971748;28;20063;-74
2023/10/12 15:48:12;;;;;;;11.30;4.05;;;;;;;;;;4972986;28;20449;-72
2023/10/12 15:50:38;;;;;;;6.30;3.50;;;;;;;;;;4971809;28;20402;-73
2023/10/12 15:53:06;;;;;;;8.23;3.60;;;;;;;;;;4971697;28;20019;-72
2023/10/12 15:55:35;;;;;;;8.02;4.10;;;;;;;;;;4967308;28;20045;-72
2023/10/12 15:58:00;;;;;;;5.32;3.55;;;;;;;;;;4970352;28;20089;-73
2023/10/12 16:00:29;;;;;;;8.98;3.80;;;;;;;;;;4971557;28;20437;-72
2023/10/12 16:02:56;;;;;;;10.40;3.80;;;;;;;;;;4970404;28;20019;-72
2023/10/12 16:05:34;;;;;;;5.55;3.55;;;;;;;;;;4969478;28;20425;-72
2023/10/12 16:08:12;;;;;;;7.03;3.88;;;;;;;;;;4964214;28;20030;-74
2023/10/12 16:10:38;;;;;;;6.80;3.47;;;;;;;;;;4971780;28;20114;-72
2023/10/12 16:13:08;;;;;;;8.88;3.83;;;;;;;;;;4971159;28;20545;-73
2023/10/12 16:15:36;;;;;;;8.32;3.85;;;;;;;;;;4971046;28;20031;-71
2023/10/12 16:18:02;;;;;;;10.38;4.03;;;;;;;;;;4970288;28;20054;-71
2023/10/12 16:20:28;;;;;;;10.43;4.00;;;;;;;;;;4971469;28;20035;-71
2023/10/12 16:22:54;;;;;;;12.00;4.00;;;;;;;;;;4972084;28;20026;-71
2023/10/12 16:25:20;;;;;;;8.75;4.18;;;;;;;;;;4971445;28;20026;-71
2023/10/12 16:27:48;;;;;;;12.43;4.60;;;;;;;;;;4971997;28;20047;-72
2023/10/12 16:30:18;;;;;;;6.07;4.03;;;;;;;;;;4972042;28;20053;-71
2023/10/12 16:32:48;;;;;;;6.90;3.83;;;;;;;;;;4971585;28;20031;-71
2023/10/12 16:35:20;;;;;;;6.40;3.58;;;;;;;;;;4971629;28;20027;-71
2023/10/12 16:37:48;;;;;;;8.52;3.53;;;;;;;;;;4980528;28;20120;-72
2023/10/12 16:40:18;;;;;;;8.30;3.83;;;;;;;;;;4990731;28;20065;-73
2023/10/12 16:42:45;;;;;;;10.38;4.22;;;;;;;;;;4988819;28;20031;-72
2023/10/12 16:45:14;;;;;;;7.65;4.05;;;;;;;;;;4975113;28;20445;-74
2023/10/12 16:47:43;;;;;;;9.90;4.35;;;;;;;;;;4990123;28;20408;-74
2023/10/12 16:50:12;;;;;;;9.25;5.28;;;;;;;;;;4983359;28;20501;-73
2023/10/12 16:52:38;;;;;;;17.20;9.05;;;;;;;;;;4989147;28;20610;-73
2023/10/12 16:55:10;;;;;;;11.02;6.55;;;;;;;;;;4967946;28;20461;-74
2023/10/12 16:57:37;;;;;;;10.03;4.20;;;;;;;;;;4972125;28;20045;-72